sensor_id;sensor_type;location;lat;lon;timestamp;P1;durP1;ratioP1;P2;durP2;ratioP2
33148;SDS011;19506;51.040;3.856;2023-04-03T14:30:40;6.53;;;1.95;;
33148;SDS011;19506;51.040;3.856;2023-04-03T14:33:06;4.78;;;1.65;;
33148;SDS011;19506;51.040;3.856;2023-04-03T14:35:36;8.43;;;1.75;;
33148;SDS011;19506;51.040;3.856;2023-04-03T14:38:02;5.30;;;1.85;;
33148;SDS011;19506;51.040;3.856;2023-04-03T14:40:30;6.00;;;2.45;;
33148;SDS011;19506;51.040;3.856;2023-04-03T14:42:56;3.38;;;1.63;;
33148;SDS011;19506;51.040;3.856;2023-04-03T14:45:22;4.38;;;2.15;;
33148;SDS011;19506;51.040;3.856;2023-04-03T14:47:49;11.52;;;1.73;;
33148;SDS011;19506;51.040;3.856;2023-04-03T14:50:18;1.70;;;1.30;;
33148;SDS011;19506;51.040;3.856;2023-04-03T14:52:46;5.00;;;2.13;;
33148;SDS011;19506;51.040;3.856;2023-04-03T14:55:16;8.10;;;1.52;;
33148;SDS011;19506;51.040;3.856;2023-04-03T14:57:43;8.30;;;2.03;;
33148;SDS011;19506;51.040;3.856;2023-04-03T15:00:13;7.85;;;2.45;;
33148;SDS011;19506;51.040;3.856;2023-04-03T15:02:41;7.03;;;1.73;;
33148;SDS011;19506;51.040;3.856;2023-04-03T15:05:08;5.55;;;2.53;;
33148;SDS011;19506;51.040;3.856;2023-04-03T15:07:36;23.95;;;3.17;;
33148;SDS011;19506;51.040;3.856;2023-04-03T15:10:18;7.75;;;2.40;;
33148;SDS011;19506;51.040;3.856;2023-04-03T15:12:49;5.80;;;1.83;;
33148;SDS011;19506;51.040;3.856;2023-04-03T15:15:17;15.77;;;2.35;;
33148;SDS011;19506;51.040;3.856;2023-04-03T15:17:45;11.88;;;1.80;;
33148;SDS011;19506;51.040;3.856;2023-04-03T15:20:16;8.82;;;1.90;;
33148;SDS011;19506;51.040;3.856;2023-04-03T15:22:43;8.85;;;1.90;;
33148;SDS011;19506;51.040;3.856;2023-04-03T15:25:09;6.68;;;2.58;;
33148;SDS011;19506;51.040;3.856;2023-04-03T15:27:36;9.20;;;2.63;;
33148;SDS011;19506;51.040;3.856;2023-04-03T15:30:03;12.43;;;1.65;;
33148;SDS011;19506;51.040;3.856;2023-04-03T15:32:30;17.15;;;1.95;;
33148;SDS011;19506;51.040;3.856;2023-04-03T15:34:56;7.43;;;1.95;;
33148;SDS011;19506;51.040;3.856;2023-04-03T15:37:22;12.15;;;1.63;;
33148;SDS011;19506;51.040;3.856;2023-04-03T15:39:48;4.00;;;1.70;;
33148;SDS011;19506;51.040;3.856;2023-04-03T15:42:13;4.75;;;1.80;;
33148;SDS011;19506;51.040;3.856;2023-04-03T15:44:39;8.02;;;1.77;;
33148;SDS011;19506;51.040;3.856;2023-04-03T15:47:05;5.43;;;1.67;;
33148;SDS011;19506;51.040;3.856;2023-04-03T15:49:32;9.73;;;1.85;;
33148;SDS011;19506;51.040;3.856;2023-04-03T15:51:58;6.28;;;1.88;;
33148;SDS011;19506;51.040;3.856;2023-04-03T15:54:25;7.38;;;1.83;;
33148;SDS011;19506;51.040;3.856;2023-04-03T15:56:51;3.08;;;1.67;;
33148;SDS011;19506;51.040;3.856;2023-04-03T15:59:17;3.30;;;1.75;;
33148;SDS011;19506;51.040;3.856;2023-04-03T16:01:43;8.50;;;2.03;;
33148;SDS011;19506;51.040;3.856;2023-04-03T16:04:10;5.75;;;2.05;;
33148;SDS011;19506;51.040;3.856;2023-04-03T16:06:36;3.85;;;1.40;;
33148;SDS011;19506;51.040;3.856;2023-04-03T16:09:03;8.82;;;1.80;;
33148;SDS011;19506;51.040;3.856;2023-04-03T16:11:29;3.50;;;2.03;;
33148;SDS011;19506;51.040;3.856;2023-04-03T16:13:55;3.55;;;1.60;;
33148;SDS011;19506;51.040;3.856;2023-04-03T16:16:21;4.53;;;2.28;;
33148;SDS011;19506;51.040;3.856;2023-04-03T16:18:48;3.97;;;1.90;;
33148;SDS011;19506;51.040;3.856;2023-04-03T16:21:14;7.07;;;2.45;;
33148;SDS011;19506;51.040;3.856;2023-04-03T16:23:42;8.05;;;2.00;;
33148;SDS011;19506;51.040;3.856;2023-04-03T16:26:09;7.20;;;1.90;;
33148;SDS011;19506;51.040;3.856;2023-04-03T16:28:35;8.40;;;2.55;;
33148;SDS011;19506;51.040;3.856;2023-04-03T16:31:01;3.53;;;2.13;;
33148;SDS011;19506;51.040;3.856;2023-04-03T16:33:27;4.95;;;2.22;;
33148;SDS011;19506;51.040;3.856;2023-04-03T16:35:54;3.80;;;1.98;;
33148;SDS011;19506;51.040;3.856;2023-04-03T16:38:20;6.05;;;2.38;;
33148;SDS011;19506;51.040;3.856;2023-04-03T16:40:47;15.02;;;2.40;;
33148;SDS011;19506;51.040;3.856;2023-04-03T16:43:14;7.95;;;2.60;;
33148;SDS011;19506;51.040;3.856;2023-04-03T16:45:40;5.90;;;2.60;;
33148;SDS011;19506;51.040;3.856;2023-04-03T16:48:06;3.60;;;2.10;;
33148;SDS011;19506;51.040;3.856;2023-04-03T16:50:32;6.28;;;2.50;;
33148;SDS011;19506;51.040;3.856;2023-04-03T16:52:57;8.65;;;2.33;;
33148;SDS011;19506;51.040;3.856;2023-04-03T16:55:23;9.25;;;3.80;;
33148;SDS011;19506;51.040;3.856;2023-04-03T16:57:49;7.22;;;3.58;;
33148;SDS011;19506;51.040;3.856;2023-04-03T17:00:15;7.25;;;2.85;;
33148;SDS011;19506;51.040;3.856;2023-04-03T17:02:41;6.72;;;3.38;;
33148;SDS011;19506;51.040;3.856;2023-04-03T17:05:06;5.85;;;3.10;;
33148;SDS011;19506;51.040;3.856;2023-04-03T17:07:32;6.65;;;3.08;;
33148;SDS011;19506;51.040;3.856;2023-04-03T17:09:58;6.50;;;3.60;;
33148;SDS011;19506;51.040;3.856;2023-04-03T17:12:24;5.68;;;3.25;;
33148;SDS011;19506;51.040;3.856;2023-04-03T17:14:50;9.95;;;3.28;;
33148;SDS011;19506;51.040;3.856;2023-04-03T17:17:18;9.32;;;3.45;;
33148;SDS011;19506;51.040;3.856;2023-04-03T17:19:46;8.95;;;4.18;;
33148;SDS011;19506;51.040;3.856;2023-04-03T17:22:12;14.45;;;2.95;;
33148;SDS011;19506;51.040;3.856;2023-04-03T17:24:37;10.80;;;3.03;;
33148;SDS011;19506;51.040;3.856;2023-04-03T17:27:03;5.78;;;2.80;;
33148;SDS011;19506;51.040;3.856;2023-04-03T17:29:29;7.43;;;2.65;;
33148;SDS011;19506;51.040;3.856;2023-04-03T17:31:55;6.07;;;3.15;;
33148;SDS011;19506;51.040;3.856;2023-04-03T17:34:21;6.63;;;2.83;;
33148;SDS011;19506;51.040;3.856;2023-04-03T17:36:47;9.13;;;2.78;;
33148;SDS011;19506;51.040;3.856;2023-04-03T17:39:13;4.70;;;2.55;;
33148;SDS011;19506;51.040;3.856;2023-04-03T17:41:38;6.53;;;2.58;;
33148;SDS011;19506;51.040;3.856;2023-04-03T17:44:04;6.55;;;2.50;;
33148;SDS011;19506;51.040;3.856;2023-04-03T17:46:30;4.50;;;1.98;;
33148;SDS011;19506;51.040;3.856;2023-04-03T17:48:56;4.30;;;2.33;;
33148;SDS011;19506;51.040;3.856;2023-04-03T17:51:23;5.63;;;2.15;;
33148;SDS011;19506;51.040;3.856;2023-04-03T17:53:49;6.63;;;2.88;;
33148;SDS011;19506;51.040;3.856;2023-04-03T17:56:16;8.70;;;3.85;;
33148;SDS011;19506;51.040;3.856;2023-04-03T17:58:44;5.65;;;2.60;;
33148;SDS011;19506;51.040;3.856;2023-04-03T18:01:11;12.70;;;3.33;;
33148;SDS011;19506;51.040;3.856;2023-04-03T18:03:45;5.05;;;2.42;;
33148;SDS011;19506;51.040;3.856;2023-04-03T18:06:14;9.32;;;2.08;;
33148;SDS011;19506;51.040;3.856;2023-04-03T18:08:49;4.80;;;2.30;;
33148;SDS011;19506;51.040;3.856;2023-04-03T18:11:25;4.20;;;2.40;;
33148;SDS011;19506;51.040;3.856;2023-04-03T18:13:52;7.68;;;2.83;;
33148;SDS011;19506;51.040;3.856;2023-04-03T18:16:21;9.30;;;2.80;;
33148;SDS011;19506;51.040;3.856;2023-04-03T18:18:47;12.82;;;2.33;;
33148;SDS011;19506;51.040;3.856;2023-04-03T18:21:13;6.57;;;2.70;;
33148;SDS011;19506;51.040;3.856;2023-04-03T18:23:40;4.55;;;2.28;;
33148;SDS011;19506;51.040;3.856;2023-04-03T18:26:11;6.43;;;2.25;;
33148;SDS011;19506;51.040;3.856;2023-04-03T18:28:39;6.55;;;2.35;;
33148;SDS011;19506;51.040;3.856;2023-04-03T18:31:08;7.47;;;2.92;;
33148;SDS011;19506;51.040;3.856;2023-04-03T18:33:35;9.38;;;2.33;;
33148;SDS011;19506;51.040;3.856;2023-04-03T18:36:03;4.75;;;1.83;;
33148;SDS011;19506;51.040;3.856;2023-04-03T18:38:29;3.88;;;1.92;;
33148;SDS011;19506;51.040;3.856;2023-04-03T18:43:21;5.82;;;1.73;;
33148;SDS011;19506;51.040;3.856;2023-04-03T18:45:47;5.68;;;2.20;;
33148;SDS011;19506;51.040;3.856;2023-04-03T18:50:38;4.70;;;2.25;;
33148;SDS011;19506;51.040;3.856;2023-04-03T18:53:04;3.35;;;2.15;;
33148;SDS011;19506;51.040;3.856;2023-04-03T18:55:30;6.78;;;2.10;;
33148;SDS011;19506;51.040;3.856;2023-04-03T18:57:56;2.35;;;1.65;;
33148;SDS011;19506;51.040;3.856;2023-04-03T19:00:21;2.75;;;1.58;;
33148;SDS011;19506;51.040;3.856;2023-04-03T19:02:47;9.57;;;2.15;;
33148;SDS011;19506;51.040;3.856;2023-04-03T19:05:14;7.03;;;3.25;;
33148;SDS011;19506;51.040;3.856;2023-04-03T19:07:42;8.05;;;1.80;;
33148;SDS011;19506;51.040;3.856;2023-04-03T19:10:09;9.02;;;2.40;;
33148;SDS011;19506;51.040;3.856;2023-04-03T19:12:41;11.57;;;2.67;;
33148;SDS011;19506;51.040;3.856;2023-04-03T19:15:11;11.77;;;2.20;;
33148;SDS011;19506;51.040;3.856;2023-04-03T19:17:38;11.52;;;2.45;;
33148;SDS011;19506;51.040;3.856;2023-04-03T19:22:29;8.20;;;2.47;;
33148;SDS011;19506;51.040;3.856;2023-04-03T19:24:55;4.55;;;2.22;;
33148;SDS011;19506;51.040;3.856;2023-04-03T19:27:21;10.10;;;1.77;;
33148;SDS011;19506;51.040;3.856;2023-04-03T19:29:49;4.13;;;1.65;;
33148;SDS011;19506;51.040;3.856;2023-04-03T19:32:15;4.47;;;1.95;;
33148;SDS011;19506;51.040;3.856;2023-04-03T19:37:06;4.65;;;1.98;;
33148;SDS011;19506;51.040;3.856;2023-04-03T19:39:32;3.38;;;1.70;;
33148;SDS011;19506;51.040;3.856;2023-04-03T19:42:01;16.02;;;2.28;;
33148;SDS011;19506;51.040;3.856;2023-04-03T19:44:29;7.22;;;2.25;;
33148;SDS011;19506;51.040;3.856;2023-04-03T19:47:00;6.88;;;2.10;;
33148;SDS011;19506;51.040;3.856;2023-04-03T19:49:27;5.68;;;1.70;;
33148;SDS011;19506;51.040;3.856;2023-04-03T19:51:53;8.55;;;2.47;;
33148;SDS011;19506;51.040;3.856;2023-04-03T19:54:20;5.32;;;2.22;;
33148;SDS011;19506;51.040;3.856;2023-04-03T19:56:46;9.02;;;1.95;;
33148;SDS011;19506;51.040;3.856;2023-04-03T19:59:12;4.45;;;2.05;;
33148;SDS011;19506;51.040;3.856;2023-04-03T20:01:40;10.10;;;2.22;;
33148;SDS011;19506;51.040;3.856;2023-04-03T20:06:31;8.75;;;1.75;;
33148;SDS011;19506;51.040;3.856;2023-04-03T20:08:57;10.80;;;1.92;;
33148;SDS011;19506;51.040;3.856;2023-04-03T20:11:23;6.45;;;1.85;;
33148;SDS011;19506;51.040;3.856;2023-04-03T20:13:50;7.90;;;2.10;;
33148;SDS011;19506;51.040;3.856;2023-04-03T20:16:17;9.05;;;2.40;;
33148;SDS011;19506;51.040;3.856;2023-04-03T20:18:44;21.80;;;3.00;;
33148;SDS011;19506;51.040;3.856;2023-04-03T20:23:36;5.40;;;2.35;;
33148;SDS011;19506;51.040;3.856;2023-04-03T20:26:02;12.18;;;1.63;;
33148;SDS011;19506;51.040;3.856;2023-04-03T20:28:29;19.60;;;2.60;;
33148;SDS011;19506;51.040;3.856;2023-04-03T20:30:56;6.40;;;1.85;;
33148;SDS011;19506;51.040;3.856;2023-04-03T20:33:23;4.40;;;1.95;;
33148;SDS011;19506;51.040;3.856;2023-04-03T20:35:52;7.00;;;2.10;;
33148;SDS011;19506;51.040;3.856;2023-04-03T20:38:22;3.53;;;1.52;;
33148;SDS011;19506;51.040;3.856;2023-04-03T20:40:48;3.88;;;1.77;;
